sensor_id;sensor_type;location;lat;lon;timestamp;temperature;humidity
68109;SHT30;54893;49.864;19.084;2022-10-31T00:01:51;10.76;92.71
68109;SHT30;54893;49.864;19.084;2022-10-31T00:06:51;10.50;93.86
68109;SHT30;54893;49.864;19.084;2022-10-31T00:11:52;10.36;94.35
68109;SHT30;54893;49.864;19.084;2022-10-31T00:16:52;10.21;94.51
68109;SHT30;54893;49.864;19.084;2022-10-31T00:21:52;10.06;94.98
68109;SHT30;54893;49.864;19.084;2022-10-31T00:26:53;10.02;95.44
68109;SHT30;54893;49.864;19.084;2022-10-31T00:31:53;9.91;95.40
68109;SHT30;54893;49.864;19.084;2022-10-31T00:36:53;9.87;95.96
68109;SHT30;54893;49.864;19.084;2022-10-31T00:41:54;9.75;95.70
68109;SHT30;54893;49.864;19.084;2022-10-31T00:46:54;9.62;95.89
68109;SHT30;54893;49.864;19.084;2022-10-31T00:51:54;9.55;96.18
68109;SHT30;54893;49.864;19.084;2022-10-31T00:56:55;9.54;94.40
68109;SHT30;54893;49.864;19.084;2022-10-31T01:01:55;9.61;93.88
68109;SHT30;54893;49.864;19.084;2022-10-31T01:06:55;9.50;95.15
68109;SHT30;54893;49.864;19.084;2022-10-31T01:11:56;9.77;94.80
68109;SHT30;54893;49.864;19.084;2022-10-31T01:16:56;9.81;93.47
68109;SHT30;54893;49.864;19.084;2022-10-31T01:21:56;9.74;94.33
68109;SHT30;54893;49.864;19.084;2022-10-31T01:26:56;9.81;93.91
68109;SHT30;54893;49.864;19.084;2022-10-31T01:31:57;9.84;93.58
68109;SHT30;54893;49.864;19.084;2022-10-31T01:36:57;9.70;95.80
68109;SHT30;54893;49.864;19.084;2022-10-31T01:41:58;9.48;96.17
68109;SHT30;54893;49.864;19.084;2022-10-31T01:52:06;9.50;96.08
68109;SHT30;54893;49.864;19.084;2022-10-31T01:57:10;9.73;93.93
68109;SHT30;54893;49.864;19.084;2022-10-31T02:02:13;9.82;93.60
68109;SHT30;54893;49.864;19.084;2022-10-31T02:07:18;9.84;93.96
68109;SHT30;54893;49.864;19.084;2022-10-31T02:12:21;9.87;93.94
68109;SHT30;54893;49.864;19.084;2022-10-31T02:17:21;9.73;94.79
68109;SHT30;54893;49.864;19.084;2022-10-31T02:38:20;9.41;95.09
68109;SHT30;54893;49.864;19.084;2022-10-31T02:48:27;9.58;93.97
68109;SHT30;54893;49.864;19.084;2022-10-31T02:53:33;9.68;95.14
68109;SHT30;54893;49.864;19.084;2022-10-31T02:58:36;9.64;94.57
68109;SHT30;54893;49.864;19.084;2022-10-31T03:04:37;9.75;93.70
68109;SHT30;54893;49.864;19.084;2022-10-31T03:09:33;10.04;92.99
68109;SHT30;54893;49.864;19.084;2022-10-31T03:14:41;9.99;93.20
68109;SHT30;54893;49.864;19.084;2022-10-31T03:19:45;10.11;93.09
68109;SHT30;54893;49.864;19.084;2022-10-31T03:24:47;10.36;92.67
68109;SHT30;54893;49.864;19.084;2022-10-31T03:29:54;10.31;92.36
68109;SHT30;54893;49.864;19.084;2022-10-31T03:34:58;10.26;92.59
68109;SHT30;54893;49.864;19.084;2022-10-31T03:40:01;10.25;92.63
68109;SHT30;54893;49.864;19.084;2022-10-31T03:45:10;10.31;92.45
68109;SHT30;54893;49.864;19.084;2022-10-31T03:50:13;10.53;92.02
68109;SHT30;54893;49.864;19.084;2022-10-31T04:00:55;10.86;91.10
68109;SHT30;54893;49.864;19.084;2022-10-31T04:05:59;10.97;90.84
68109;SHT30;54893;49.864;19.084;2022-10-31T04:11:03;10.80;91.15
68109;SHT30;54893;49.864;19.084;2022-10-31T04:16:05;10.70;91.48
68109;SHT30;54893;49.864;19.084;2022-10-31T04:21:07;10.55;91.83
68109;SHT30;54893;49.864;19.084;2022-10-31T04:26:10;10.55;91.72
68109;SHT30;54893;49.864;19.084;2022-10-31T04:31:12;10.36;91.96
68109;SHT30;54893;49.864;19.084;2022-10-31T04:36:12;10.15;92.87
68109;SHT30;54893;49.864;19.084;2022-10-31T04:41:13;9.81;93.84
68109;SHT30;54893;49.864;19.084;2022-10-31T04:46:13;9.80;93.57
68109;SHT30;54893;49.864;19.084;2022-10-31T04:51:13;9.68;93.54
68109;SHT30;54893;49.864;19.084;2022-10-31T04:56:14;9.65;93.50
68109;SHT30;54893;49.864;19.084;2022-10-31T05:01:14;9.61;93.26
68109;SHT30;54893;49.864;19.084;2022-10-31T05:06:15;9.55;93.30
68109;SHT30;54893;49.864;19.084;2022-10-31T05:11:16;9.55;93.31
68109;SHT30;54893;49.864;19.084;2022-10-31T05:16:16;9.40;93.85
68109;SHT30;54893;49.864;19.084;2022-10-31T05:21:17;9.58;93.53
68109;SHT30;54893;49.864;19.084;2022-10-31T05:26:17;9.55;93.62
68109;SHT30;54893;49.864;19.084;2022-10-31T05:31:17;9.62;93.62
68109;SHT30;54893;49.864;19.084;2022-10-31T05:36:18;9.68;93.29
68109;SHT30;54893;49.864;19.084;2022-10-31T05:41:18;9.70;93.03
68109;SHT30;54893;49.864;19.084;2022-10-31T05:46:18;9.78;92.89
68109;SHT30;54893;49.864;19.084;2022-10-31T05:51:19;9.97;92.35
68109;SHT30;54893;49.864;19.084;2022-10-31T05:56:19;9.91;92.48
68109;SHT30;54893;49.864;19.084;2022-10-31T06:01:19;10.09;91.94
68109;SHT30;54893;49.864;19.084;2022-10-31T06:06:19;10.25;91.58
68109;SHT30;54893;49.864;19.084;2022-10-31T06:11:20;10.28;91.62
68109;SHT30;54893;49.864;19.084;2022-10-31T06:16:20;10.44;91.20
68109;SHT30;54893;49.864;19.084;2022-10-31T06:21:20;10.73;90.22
68109;SHT30;54893;49.864;19.084;2022-10-31T06:26:21;10.89;90.05
68109;SHT30;54893;49.864;19.084;2022-10-31T06:31:21;11.03;89.67
68109;SHT30;54893;49.864;19.084;2022-10-31T06:36:21;11.24;89.09
68109;SHT30;54893;49.864;19.084;2022-10-31T06:41:22;11.56;88.00
68109;SHT30;54893;49.864;19.084;2022-10-31T06:46:22;11.75;87.50
68109;SHT30;54893;49.864;19.084;2022-10-31T06:51:22;11.92;86.74
68109;SHT30;54893;49.864;19.084;2022-10-31T06:56:23;12.15;86.03
68109;SHT30;54893;49.864;19.084;2022-10-31T07:01:23;12.41;85.66
68109;SHT30;54893;49.864;19.084;2022-10-31T07:06:23;12.62;84.81
68109;SHT30;54893;49.864;19.084;2022-10-31T07:11:24;12.93;83.81
68109;SHT30;54893;49.864;19.084;2022-10-31T07:16:24;13.20;83.49
68109;SHT30;54893;49.864;19.084;2022-10-31T07:21:24;13.54;82.53
68109;SHT30;54893;49.864;19.084;2022-10-31T07:26:25;13.79;81.38
68109;SHT30;54893;49.864;19.084;2022-10-31T07:31:26;14.05;81.11
68109;SHT30;54893;49.864;19.084;2022-10-31T07:36:26;14.36;80.47
68109;SHT30;54893;49.864;19.084;2022-10-31T07:41:26;14.62;79.82
68109;SHT30;54893;49.864;19.084;2022-10-31T07:46:27;14.85;78.37
68109;SHT30;54893;49.864;19.084;2022-10-31T07:51:28;15.04;78.34
68109;SHT30;54893;49.864;19.084;2022-10-31T07:56:28;15.20;79.09
68109;SHT30;54893;49.864;19.084;2022-10-31T08:01:28;15.55;77.92
68109;SHT30;54893;49.864;19.084;2022-10-31T08:06:28;15.78;76.63
68109;SHT30;54893;49.864;19.084;2022-10-31T08:11:29;16.04;75.90
68109;SHT30;54893;49.864;19.084;2022-10-31T08:16:29;16.25;74.72
68109;SHT30;54893;49.864;19.084;2022-10-31T08:21:29;16.55;75.07
68109;SHT30;54893;49.864;19.084;2022-10-31T08:26:30;16.80;74.69
68109;SHT30;54893;49.864;19.084;2022-10-31T08:31:30;17.00;73.97
68109;SHT30;54893;49.864;19.084;2022-10-31T08:36:31;17.10;74.18
68109;SHT30;54893;49.864;19.084;2022-10-31T08:41:31;17.30;73.66
68109;SHT30;54893;49.864;19.084;2022-10-31T08:46:31;16.75;76.95
68109;SHT30;54893;49.864;19.084;2022-10-31T08:51:32;17.07;76.57
68109;SHT30;54893;49.864;19.084;2022-10-31T08:56:33;17.19;76.16
68109;SHT30;54893;49.864;19.084;2022-10-31T09:01:33;17.15;76.05
68109;SHT30;54893;49.864;19.084;2022-10-31T09:06:33;17.16;75.67
68109;SHT30;54893;49.864;19.084;2022-10-31T09:11:34;17.40;76.00
68109;SHT30;54893;49.864;19.084;2022-10-31T09:16:34;17.83;75.71
68109;SHT30;54893;49.864;19.084;2022-10-31T09:21:34;18.02;74.53
68109;SHT30;54893;49.864;19.084;2022-10-31T09:26:35;18.19;73.93
68109;SHT30;54893;49.864;19.084;2022-10-31T09:31:35;18.24;73.53
68109;SHT30;54893;49.864;19.084;2022-10-31T09:36:38;18.34;72.95
68109;SHT30;54893;49.864;19.084;2022-10-31T09:47:05;18.65;72.44
68109;SHT30;54893;49.864;19.084;2022-10-31T09:57:34;18.82;69.61
68109;SHT30;54893;49.864;19.084;2022-10-31T10:02:43;18.98;69.76
68109;SHT30;54893;49.864;19.084;2022-10-31T10:08:07;18.91;68.84
68109;SHT30;54893;49.864;19.084;2022-10-31T10:29:50;19.50;66.79
68109;SHT30;54893;49.864;19.084;2022-10-31T10:35:17;19.60;67.29
68109;SHT30;54893;49.864;19.084;2022-10-31T10:40:27;19.56;67.34
68109;SHT30;54893;49.864;19.084;2022-10-31T10:45:27;19.57;67.08
68109;SHT30;54893;49.864;19.084;2022-10-31T10:50:48;19.61;66.81
68109;SHT30;54893;49.864;19.084;2022-10-31T10:55:59;19.67;66.30
68109;SHT30;54893;49.864;19.084;2022-10-31T11:01:10;19.77;66.67
68109;SHT30;54893;49.864;19.084;2022-10-31T11:06:22;19.87;66.79
68109;SHT30;54893;49.864;19.084;2022-10-31T11:11:27;19.98;65.00
68109;SHT30;54893;49.864;19.084;2022-10-31T11:16:37;20.07;65.14
68109;SHT30;54893;49.864;19.084;2022-10-31T11:21:37;20.11;65.56
68109;SHT30;54893;49.864;19.084;2022-10-31T11:26:38;19.95;64.59
68109;SHT30;54893;49.864;19.084;2022-10-31T11:31:40;20.00;64.87
68109;SHT30;54893;49.864;19.084;2022-10-31T11:36:43;20.28;64.45
68109;SHT30;54893;49.864;19.084;2022-10-31T11:41:44;20.28;64.40
68109;SHT30;54893;49.864;19.084;2022-10-31T11:46:48;20.47;64.40
68109;SHT30;54893;49.864;19.084;2022-10-31T11:51:53;20.35;62.15
68109;SHT30;54893;49.864;19.084;2022-10-31T11:56:55;20.56;64.24
68109;SHT30;54893;49.864;19.084;2022-10-31T12:01:58;20.64;62.94
68109;SHT30;54893;49.864;19.084;2022-10-31T12:06:59;20.56;63.49
68109;SHT30;54893;49.864;19.084;2022-10-31T12:12:10;20.65;63.13
68109;SHT30;54893;49.864;19.084;2022-10-31T12:17:17;20.71;62.06
68109;SHT30;54893;49.864;19.084;2022-10-31T12:33:29;20.78;62.96
68109;SHT30;54893;49.864;19.084;2022-10-31T12:38:57;20.76;63.20
68109;SHT30;54893;49.864;19.084;2022-10-31T12:44:06;20.59;61.47
68109;SHT30;54893;49.864;19.084;2022-10-31T12:49:28;20.78;63.09
68109;SHT30;54893;49.864;19.084;2022-10-31T13:00:02;20.82;62.81
68109;SHT30;54893;49.864;19.084;2022-10-31T13:05:22;20.76;62.37
68109;SHT30;54893;49.864;19.084;2022-10-31T13:10:36;20.69;62.56
68109;SHT30;54893;49.864;19.084;2022-10-31T13:15:48;20.72;62.82
68109;SHT30;54893;49.864;19.084;2022-10-31T13:20:50;20.68;62.30
68109;SHT30;54893;49.864;19.084;2022-10-31T13:25:54;20.56;62.37
68109;SHT30;54893;49.864;19.084;2022-10-31T13:30:55;20.52;62.44
68109;SHT30;54893;49.864;19.084;2022-10-31T13:46:40;20.32;63.21
68109;SHT30;54893;49.864;19.084;2022-10-31T13:51:40;20.24;63.30
68109;SHT30;54893;49.864;19.084;2022-10-31T13:56:41;20.18;63.92
68109;SHT30;54893;49.864;19.084;2022-10-31T14:01:50;19.95;65.18
68109;SHT30;54893;49.864;19.084;2022-10-31T14:06:56;19.98;64.58
68109;SHT30;54893;49.864;19.084;2022-10-31T14:12:06;19.75;65.84
68109;SHT30;54893;49.864;19.084;2022-10-31T14:17:16;19.61;65.58
68109;SHT30;54893;49.864;19.084;2022-10-31T14:22:20;19.43;66.43
68109;SHT30;54893;49.864;19.084;2022-10-31T14:32:25;19.12;67.34
68109;SHT30;54893;49.864;19.084;2022-10-31T14:43:13;18.66;68.34
68109;SHT30;54893;49.864;19.084;2022-10-31T14:53:46;18.32;68.93
68109;SHT30;54893;49.864;19.084;2022-10-31T14:58:48;17.91;69.75
68109;SHT30;54893;49.864;19.084;2022-10-31T15:03:49;17.44;70.95
68109;SHT30;54893;49.864;19.084;2022-10-31T15:08:52;17.40;70.85
68109;SHT30;54893;49.864;19.084;2022-10-31T15:13:55;17.15;71.27
68109;SHT30;54893;49.864;19.084;2022-10-31T15:19:03;16.48;72.92
68109;SHT30;54893;49.864;19.084;2022-10-31T15:24:04;15.94;74.42
68109;SHT30;54893;49.864;19.084;2022-10-31T15:29:10;15.90;74.19
68109;SHT30;54893;49.864;19.084;2022-10-31T15:34:38;15.40;76.44
68109;SHT30;54893;49.864;19.084;2022-10-31T15:39:39;15.27;76.11
68109;SHT30;54893;49.864;19.084;2022-10-31T15:44:41;15.36;75.40
68109;SHT30;54893;49.864;19.084;2022-10-31T15:49:48;14.96;77.02
68109;SHT30;54893;49.864;19.084;2022-10-31T15:54:52;14.77;77.20
68109;SHT30;54893;49.864;19.084;2022-10-31T15:59:53;14.68;78.83
68109;SHT30;54893;49.864;19.084;2022-10-31T16:04:57;14.65;77.13
68109;SHT30;54893;49.864;19.084;2022-10-31T16:10:00;14.29;79.18
68109;SHT30;54893;49.864;19.084;2022-10-31T16:15:00;14.18;79.54
68109;SHT30;54893;49.864;19.084;2022-10-31T16:20:04;14.02;80.56
68109;SHT30;54893;49.864;19.084;2022-10-31T16:25:16;14.00;80.34
68109;SHT30;54893;49.864;19.084;2022-10-31T16:30:37;13.95;80.14
68109;SHT30;54893;49.864;19.084;2022-10-31T16:35:40;13.75;80.34
68109;SHT30;54893;49.864;19.084;2022-10-31T16:40:41;13.67;81.20
68109;SHT30;54893;49.864;19.084;2022-10-31T16:45:43;13.60;80.18
68109;SHT30;54893;49.864;19.084;2022-10-31T16:50:45;13.43;82.09
68109;SHT30;54893;49.864;19.084;2022-10-31T16:55:53;13.19;83.51
68109;SHT30;54893;49.864;19.084;2022-10-31T17:00:54;12.95;83.60
68109;SHT30;54893;49.864;19.084;2022-10-31T17:05:54;13.00;83.23
68109;SHT30;54893;49.864;19.084;2022-10-31T17:10:56;13.02;82.10
68109;SHT30;54893;49.864;19.084;2022-10-31T17:15:59;13.10;82.16
68109;SHT30;54893;49.864;19.084;2022-10-31T17:21:02;13.22;80.75
68109;SHT30;54893;49.864;19.084;2022-10-31T17:26:02;13.22;82.98
68109;SHT30;54893;49.864;19.084;2022-10-31T17:31:03;13.02;83.01
68109;SHT30;54893;49.864;19.084;2022-10-31T17:36:03;13.07;82.46
68109;SHT30;54893;49.864;19.084;2022-10-31T17:41:05;13.02;83.06
68109;SHT30;54893;49.864;19.084;2022-10-31T17:46:05;12.85;82.95
68109;SHT30;54893;49.864;19.084;2022-10-31T17:51:06;12.88;83.05
68109;SHT30;54893;49.864;19.084;2022-10-31T17:56:07;12.90;83.02
68109;SHT30;54893;49.864;19.084;2022-10-31T18:01:10;12.79;83.68
68109;SHT30;54893;49.864;19.084;2022-10-31T18:06:11;12.68;84.43
68109;SHT30;54893;49.864;19.084;2022-10-31T18:11:16;12.62;83.88
68109;SHT30;54893;49.864;19.084;2022-10-31T18:16:18;12.53;84.88
68109;SHT30;54893;49.864;19.084;2022-10-31T18:21:19;12.45;84.20
68109;SHT30;54893;49.864;19.084;2022-10-31T18:26:20;12.78;82.46
68109;SHT30;54893;49.864;19.084;2022-10-31T18:31:21;13.06;81.40
68109;SHT30;54893;49.864;19.084;2022-10-31T18:36:22;13.13;81.01
68109;SHT30;54893;49.864;19.084;2022-10-31T18:41:23;12.92;82.85
68109;SHT30;54893;49.864;19.084;2022-10-31T18:46:23;12.58;83.80
68109;SHT30;54893;49.864;19.084;2022-10-31T18:51:23;12.45;84.33
68109;SHT30;54893;49.864;19.084;2022-10-31T18:56:24;12.55;83.42
68109;SHT30;54893;49.864;19.084;2022-10-31T19:01:24;12.70;82.60
68109;SHT30;54893;49.864;19.084;2022-10-31T19:06:26;12.59;82.78
68109;SHT30;54893;49.864;19.084;2022-10-31T19:11:27;12.20;84.73
68109;SHT30;54893;49.864;19.084;2022-10-31T19:16:28;12.32;83.81
68109;SHT30;54893;49.864;19.084;2022-10-31T19:21:29;12.11;85.60
68109;SHT30;54893;49.864;19.084;2022-10-31T19:26:32;12.02;84.93
68109;SHT30;54893;49.864;19.084;2022-10-31T19:31:32;12.11;87.72
68109;SHT30;54893;49.864;19.084;2022-10-31T19:36:33;11.94;86.30
68109;SHT30;54893;49.864;19.084;2022-10-31T19:41:35;11.85;87.92
68109;SHT30;54893;49.864;19.084;2022-10-31T19:46:35;11.54;87.83
68109;SHT30;54893;49.864;19.084;2022-10-31T19:51:36;11.26;86.32
68109;SHT30;54893;49.864;19.084;2022-10-31T19:56:36;11.28;86.28
68109;SHT30;54893;49.864;19.084;2022-10-31T20:01:37;11.17;87.22
68109;SHT30;54893;49.864;19.084;2022-10-31T20:06:39;11.22;88.46
68109;SHT30;54893;49.864;19.084;2022-10-31T20:11:41;10.96;88.01
68109;SHT30;54893;49.864;19.084;2022-10-31T20:16:42;10.62;89.35
68109;SHT30;54893;49.864;19.084;2022-10-31T20:21:43;10.52;89.47
68109;SHT30;54893;49.864;19.084;2022-10-31T20:26:43;10.39;89.96
68109;SHT30;54893;49.864;19.084;2022-10-31T20:31:45;10.22;92.53
68109;SHT30;54893;49.864;19.084;2022-10-31T20:36:46;10.28;90.76
68109;SHT30;54893;49.864;19.084;2022-10-31T20:41:47;10.68;88.42
68109;SHT30;54893;49.864;19.084;2022-10-31T20:46:47;10.72;90.04
68109;SHT30;54893;49.864;19.084;2022-10-31T20:51:48;10.63;90.17
68109;SHT30;54893;49.864;19.084;2022-10-31T20:56:48;10.66;91.17
68109;SHT30;54893;49.864;19.084;2022-10-31T21:01:48;10.58;91.40
68109;SHT30;54893;49.864;19.084;2022-10-31T21:06:49;10.46;92.56
68109;SHT30;54893;49.864;19.084;2022-10-31T21:11:49;10.45;92.36
68109;SHT30;54893;49.864;19.084;2022-10-31T21:16:49;10.16;93.69
68109;SHT30;54893;49.864;19.084;2022-10-31T21:21:50;9.84;94.76
68109;SHT30;54893;49.864;19.084;2022-10-31T21:26:50;9.41;95.24
68109;SHT30;54893;49.864;19.084;2022-10-31T21:31:51;9.41;96.26
68109;SHT30;54893;49.864;19.084;2022-10-31T21:36:51;9.50;96.43
68109;SHT30;54893;49.864;19.084;2022-10-31T21:41:51;9.51;96.09
68109;SHT30;54893;49.864;19.084;2022-10-31T21:46:52;9.37;96.08
68109;SHT30;54893;49.864;19.084;2022-10-31T21:51:52;9.34;96.52
68109;SHT30;54893;49.864;19.084;2022-10-31T21:56:54;9.31;96.78
68109;SHT30;54893;49.864;19.084;2022-10-31T22:01:54;9.17;96.91
68109;SHT30;54893;49.864;19.084;2022-10-31T22:06:57;9.20;97.41
68109;SHT30;54893;49.864;19.084;2022-10-31T22:11:57;9.20;97.28
68109;SHT30;54893;49.864;19.084;2022-10-31T22:17:00;9.27;97.34
68109;SHT30;54893;49.864;19.084;2022-10-31T22:22:00;9.16;97.46
68109;SHT30;54893;49.864;19.084;2022-10-31T22:27:01;9.07;97.61
68109;SHT30;54893;49.864;19.084;2022-10-31T22:32:01;8.75;97.83
68109;SHT30;54893;49.864;19.084;2022-10-31T22:37:02;8.70;98.39
68109;SHT30;54893;49.864;19.084;2022-10-31T22:42:02;8.59;98.47
68109;SHT30;54893;49.864;19.084;2022-10-31T22:47:03;8.55;98.25
68109;SHT30;54893;49.864;19.084;2022-10-31T22:52:03;8.69;98.39
68109;SHT30;54893;49.864;19.084;2022-10-31T22:57:04;8.87;92.66
68109;SHT30;54893;49.864;19.084;2022-10-31T23:02:04;8.94;92.38
68109;SHT30;54893;49.864;19.084;2022-10-31T23:07:05;9.06;96.07
68109;SHT30;54893;49.864;19.084;2022-10-31T23:12:05;8.94;96.41
68109;SHT30;54893;49.864;19.084;2022-10-31T23:17:24;8.93;96.60
68109;SHT30;54893;49.864;19.084;2022-10-31T23:22:24;8.84;96.95
68109;SHT30;54893;49.864;19.084;2022-10-31T23:27:25;9.00;93.91
68109;SHT30;54893;49.864;19.084;2022-10-31T23:32:36;9.22;92.00
68109;SHT30;54893;49.864;19.084;2022-10-31T23:37:37;9.09;92.10
68109;SHT30;54893;49.864;19.084;2022-10-31T23:42:38;9.10;93.23
68109;SHT30;54893;49.864;19.084;2022-10-31T23:47:38;9.12;94.02
68109;SHT30;54893;49.864;19.084;2022-10-31T23:52:38;9.40;93.76
68109;SHT30;54893;49.864;19.084;2022-10-31T23:57:39;9.23;95.42
